Time;durP1;ratioP1;P1;durP2;ratioP2;P2;SDS_P1;SDS_P2;PMS_P1;PMS_P2;Temp;Humidity;BMP_temperature;BMP_pressure;BME280_temperature;BME280_humidity;BME280_pressure;Samples;Min_cycle;Max_cycle;Signal;HPM_P1;HPM_P2
2023/12/01 00:00:42;;;;;;;0.10;0.08;;;;;;;5.36;59.47;98255.13;5334392;26;20086;-94
2023/12/01 00:03:07;;;;;;;0.60;0.60;;;;;;;5.18;59.47;98260.00;5334795;26;20064;-94
2023/12/01 00:05:33;;;;;;;0.00;0.00;;;;;;;5.19;59.47;98263.44;5334264;26;20074;-94
2023/12/01 00:07:58;;;;;;;0.05;0.05;;;;;;;5.15;59.46;98275.59;5334451;26;20095;-94
2023/12/01 00:10:24;;;;;;;0.00;0.00;;;;;;;5.04;59.46;98271.69;5353005;26;20137;-94
2023/12/01 00:12:49;;;;;;;0.15;0.15;;;;;;;5.33;59.48;98270.72;5334286;26;20060;-94
2023/12/01 00:15:15;;;;;;;0.00;0.00;;;;;;;5.26;59.47;98267.50;5352464;26;20071;-94
2023/12/01 00:17:40;;;;;;;0.00;0.00;;;;;;;5.27;59.47;98261.44;5352651;26;20095;-94
2023/12/01 00:20:06;;;;;;;0.00;0.00;;;;;;;5.11;59.46;98260.28;5333808;26;20063;-95
2023/12/01 00:22:32;;;;;;;0.55;0.55;;;;;;;5.06;59.46;98265.59;5334301;26;20352;-94
2023/12/01 00:24:57;;;;;;;0.10;0.10;;;;;;;5.05;59.46;98276.81;5352663;26;20064;-96
2023/12/01 00:27:23;;;;;;;0.00;0.00;;;;;;;5.08;59.45;98287.00;5334380;26;20073;-95
2023/12/01 00:29:48;;;;;;;0.00;0.00;;;;;;;5.06;59.46;98288.81;5353021;26;20086;-96
2023/12/01 00:32:14;;;;;;;0.75;0.75;;;;;;;5.25;59.47;98296.78;5334196;26;20107;-94
2023/12/01 00:34:40;;;;;;;0.30;0.30;;;;;;;5.23;59.46;98296.84;5333835;26;20097;-93
2023/12/01 00:37:05;;;;;;;0.00;0.00;;;;;;;5.17;59.47;98285.84;5333903;26;20052;-92
2023/12/01 00:39:34;;;;;;;0.10;0.10;;;;;;;5.11;59.47;98291.22;5352055;26;20059;-92
2023/12/01 00:41:59;;;;;;;0.28;0.28;;;;;;;5.11;59.46;98284.31;5342608;26;20231;-92
2023/12/01 00:44:25;;;;;;;0.10;0.10;;;;;;;4.99;59.45;98291.66;5374208;26;20420;-93
2023/12/01 00:46:50;;;;;;;0.35;0.20;;;;;;;5.29;59.47;98300.09;5356306;26;20102;-94
2023/12/01 00:49:15;;;;;;;0.05;0.05;;;;;;;5.02;59.46;98312.16;5355219;26;22589;-93
2023/12/01 00:51:43;;;;;;;0.00;0.00;;;;;;;4.92;59.45;98315.03;5355962;26;20412;-93
2023/12/01 00:54:09;;;;;;;0.30;0.30;;;;;;;5.01;59.46;98319.06;5357231;26;20069;-94
2023/12/01 00:56:35;;;;;;;0.65;0.65;;;;;;;5.30;59.47;98317.25;5355949;26;20070;-92
2023/12/01 00:59:00;;;;;;;0.30;0.30;;;;;;;5.17;59.47;98320.22;5356281;26;20075;-95
2023/12/01 01:01:25;;;;;;;0.05;0.05;;;;;;;4.99;59.45;98323.44;5355708;26;20107;-94
2023/12/01 01:03:51;;;;;;;0.00;0.00;;;;;;;4.94;59.46;98308.09;5356031;26;20103;-94
2023/12/01 01:06:17;;;;;;;0.00;0.00;;;;;;;5.10;59.46;98302.44;5355594;26;20051;-94
2023/12/01 01:08:42;;;;;;;0.08;0.08;;;;;;;5.16;59.47;98305.66;5393183;26;20071;-93
2023/12/01 01:11:08;;;;;;;0.00;0.00;;;;;;;5.06;59.46;98306.84;5355597;26;20400;-93
2023/12/01 01:13:33;;;;;;;0.00;0.00;;;;;;;5.05;59.46;98302.59;5356424;26;20142;-96
2023/12/01 01:15:59;;;;;;;0.00;0.00;;;;;;;5.02;59.46;98307.84;5356396;26;20102;-94
2023/12/01 01:18:24;;;;;;;0.08;0.08;;;;;;;5.12;59.46;98309.22;5356432;26;20050;-93
2023/12/01 01:20:50;;;;;;;0.15;0.15;;;;;;;5.12;59.46;98296.34;5355809;26;20106;-93
2023/12/01 01:23:16;;;;;;;0.30;0.30;;;;;;;5.06;59.46;98299.13;5356208;26;20075;-93
2023/12/01 01:25:41;;;;;;;0.00;0.00;;;;;;;5.01;59.46;98301.00;5356483;26;20387;-94
2023/12/01 01:28:07;;;;;;;0.03;0.03;;;;;;;5.22;59.46;98300.31;5356091;26;20111;-94
2023/12/01 01:30:33;;;;;;;0.43;0.43;;;;;;;5.23;59.46;98304.56;5356421;26;20407;-94
2023/12/01 01:32:58;;;;;;;0.00;0.00;;;;;;;5.37;59.47;98308.41;5355811;26;20082;-93
2023/12/01 01:35:24;;;;;;;0.00;0.00;;;;;;;5.34;59.47;98303.34;5356203;26;20059;-93
2023/12/01 01:37:50;;;;;;;0.00;0.00;;;;;;;5.31;59.47;98303.47;5356385;26;20147;-94
2023/12/01 01:40:16;;;;;;;0.00;0.00;;;;;;;5.21;59.46;98303.78;5356431;26;20131;-93
2023/12/01 01:42:41;;;;;;;0.00;0.00;;;;;;;5.06;59.46;98314.59;5355979;26;20111;-94
2023/12/01 01:45:07;;;;;;;0.00;0.00;;;;;;;5.06;59.45;98298.28;5356114;26;20092;-94
2023/12/01 01:47:32;;;;;;;0.00;0.00;;;;;;;5.19;59.47;98305.53;5355665;26;20046;-93
2023/12/01 01:49:58;;;;;;;0.10;0.10;;;;;;;5.22;59.46;98314.94;5356514;26;20078;-96
2023/12/01 01:52:23;;;;;;;0.00;0.00;;;;;;;5.24;59.47;98311.41;5356565;26;20068;-95
2023/12/01 01:54:49;;;;;;;0.00;0.00;;;;;;;5.12;59.46;98310.97;5356303;26;20134;-95
2023/12/01 01:57:17;;;;;;;0.10;0.10;;;;;;;5.08;59.45;98307.66;5356434;26;20042;-96
2023/12/01 02:00:19;;;;;;;1.00;0.73;;;;;;;5.15;59.46;98308.28;5356831;26;20078;-96
2023/12/01 02:02:46;;;;;;;0.43;0.13;;;;;;;5.39;59.48;98317.78;5380568;26;20083;-96
2023/12/01 02:05:14;;;;;;;0.08;0.08;;;;;;;5.46;59.48;98321.00;5357533;26;20055;-95
2023/12/01 02:07:41;;;;;;;0.00;0.00;;;;;;;5.36;59.47;98315.31;5358237;26;20055;-93
2023/12/01 02:10:07;;;;;;;1.00;1.00;;;;;;;5.28;59.47;98314.72;5357532;26;20059;-95
2023/12/01 02:12:33;;;;;;;0.10;0.10;;;;;;;5.21;59.47;98311.53;5357295;26;20024;-96
2023/12/01 02:14:58;;;;;;;0.00;0.00;;;;;;;5.34;59.47;98311.09;5375545;26;20051;-95
2023/12/01 02:17:24;;;;;;;0.00;0.00;;;;;;;5.35;59.47;98312.78;5357792;26;20055;-96
2023/12/01 02:19:53;;;;;;;0.00;0.00;;;;;;;5.38;59.47;98321.25;5377009;26;20051;-95
2023/12/01 02:22:18;;;;;;;0.20;0.20;;;;;;;5.42;59.48;98327.16;5357978;26;20104;-95
2023/12/01 02:24:44;;;;;;;1.08;0.55;;;;;;;5.34;59.47;98322.25;5356782;26;20075;-94
2023/12/01 02:27:09;;;;;;;0.55;0.55;;;;;;;5.26;59.47;98310.50;5357008;26;20059;-96
2023/12/01 02:29:35;;;;;;;0.10;0.10;;;;;;;5.35;59.47;98303.28;5357003;26;20114;-95
2023/12/01 02:32:00;;;;;;;0.00;0.00;;;;;;;5.45;59.48;98298.69;5356406;26;20069;-94
2023/12/01 02:34:26;;;;;;;0.65;0.65;;;;;;;5.39;59.48;98302.28;5356785;26;20099;-96
2023/12/01 02:36:53;;;;;;;0.00;0.00;;;;;;;5.44;59.48;98309.87;5356898;26;20043;-95
2023/12/01 02:39:19;;;;;;;1.85;1.75;;;;;;;5.41;59.48;98305.66;5357156;26;20073;-94
2023/12/01 02:41:44;;;;;;;0.57;0.55;;;;;;;5.26;59.47;98302.78;5356511;26;20444;-96
2023/12/01 02:44:09;;;;;;;0.28;0.20;;;;;;;5.22;59.46;98302.88;5356571;26;20065;-96
2023/12/01 02:46:35;;;;;;;0.25;0.25;;;;;;;5.43;59.48;98314.19;5356826;26;20110;-95
2023/12/01 02:49:00;;;;;;;0.00;0.00;;;;;;;5.43;59.48;98309.03;5356869;26;20123;-95
2023/12/01 02:51:26;;;;;;;0.17;0.17;;;;;;;5.28;59.47;98309.56;5394832;26;20106;-96
2023/12/01 02:53:51;;;;;;;0.60;0.60;;;;;;;5.26;59.47;98328.56;5357094;26;20102;-95
2023/12/01 02:56:18;;;;;;;0.32;0.28;;;;;;;5.21;59.46;98323.56;5356624;26;20083;-96
2023/12/01 02:58:43;;;;;;;0.43;0.43;;;;;;;5.22;59.46;98317.53;5357578;26;20064;-95
2023/12/01 03:01:08;;;;;;;1.87;0.80;;;;;;;5.62;59.49;98304.06;5376033;26;20472;-95
2023/12/01 03:03:34;;;;;;;0.05;0.05;;;;;;;5.47;59.48;98320.12;5357065;26;20042;-95
2023/12/01 03:05:59;;;;;;;0.00;0.00;;;;;;;5.29;59.47;98328.47;5356921;26;20055;-96
2023/12/01 03:08:25;;;;;;;0.80;0.80;;;;;;;5.43;59.48;98326.25;5394973;26;20400;-96
2023/12/01 03:10:51;;;;;;;0.28;0.28;;;;;;;5.48;59.48;98319.22;5357350;26;20308;-96
2023/12/01 03:13:16;;;;;;;0.22;0.22;;;;;;;5.36;59.47;98311.88;5356794;26;20059;-96
2023/12/01 03:15:42;;;;;;;0.20;0.10;;;;;;;5.32;59.48;98318.88;5357276;26;20098;-96
2023/12/01 03:18:07;;;;;;;0.00;0.00;;;;;;;5.43;59.47;98316.78;5357412;26;20056;-96
2023/12/01 03:20:33;;;;;;;0.10;0.10;;;;;;;5.54;59.49;98331.91;5357037;26;20051;-96
2023/12/01 03:22:58;;;;;;;0.82;0.70;;;;;;;5.59;59.49;98335.16;5356958;26;20051;-96
2023/12/01 03:25:24;;;;;;;0.35;0.35;;;;;;;5.66;59.49;98326.31;5357003;26;20327;-96
2023/12/01 03:27:49;;;;;;;0.70;0.57;;;;;;;5.43;59.48;98318.50;5357229;26;20098;-96
2023/12/01 03:30:16;;;;;;;0.45;0.45;;;;;;;5.46;59.49;98314.13;5356845;26;20415;-96
2023/12/01 03:32:46;;;;;;;0.90;0.68;;;;;;;5.37;59.47;98323.87;5357152;26;20088;-94
2023/12/01 03:35:13;;;;;;;0.40;0.40;;;;;;;5.35;59.47;98326.53;5356494;26;20411;-93
2023/12/01 03:37:38;;;;;;;0.03;0.03;;;;;;;5.53;59.49;98325.06;5356527;26;20063;-95
2023/12/01 03:40:07;;;;;;;0.10;0.10;;;;;;;5.65;59.49;98323.78;5356776;26;20463;-96
2023/12/01 03:42:33;;;;;;;0.80;0.43;;;;;;;5.67;59.49;98327.97;5357265;26;20052;-95
2023/12/01 03:44:59;;;;;;;1.10;1.02;;;;;;;5.42;59.48;98328.00;5375494;26;20039;-94
2023/12/01 03:47:24;;;;;;;2.22;1.05;;;;;;;5.43;59.48;98328.81;5356497;26;20146;-93
2023/12/01 03:49:50;;;;;;;0.03;0.03;;;;;;;5.37;59.47;98326.47;5356018;26;20104;-92
2023/12/01 03:52:15;;;;;;;0.75;0.75;;;;;;;5.27;59.47;98327.69;5374512;26;20068;-93
2023/12/01 03:54:40;;;;;;;2.60;1.65;;;;;;;5.40;59.48;98316.87;5355789;26;20346;-94
2023/12/01 03:57:06;;;;;;;0.00;0.00;;;;;;;5.39;59.48;98319.50;5356021;26;20074;-94
2023/12/01 03:59:31;;;;;;;0.35;0.20;;;;;;;5.60;59.48;98320.53;5356738;26;20051;-95
2023/12/01 04:01:57;;;;;;;0.00;0.00;;;;;;;5.65;59.49;98309.13;5355908;26;22639;-94
2023/12/01 04:04:22;;;;;;;0.00;0.00;;;;;;;5.53;59.49;98294.94;5356244;26;20095;-96
2023/12/01 04:06:48;;;;;;;0.22;0.22;;;;;;;5.61;59.48;98296.38;5356403;26;20086;-96
2023/12/01 04:09:13;;;;;;;0.10;0.10;;;;;;;5.53;59.49;98309.56;5394180;26;20824;-94
2023/12/01 04:11:39;;;;;;;0.30;0.30;;;;;;;5.53;59.49;98310.41;5356094;26;20375;-95
2023/12/01 04:14:05;;;;;;;0.95;0.65;;;;;;;5.47;59.48;98304.62;5356532;26;20066;-93
2023/12/01 04:16:30;;;;;;;0.08;0.08;;;;;;;5.42;59.48;98314.25;5356857;26;20725;-95
2023/12/01 04:18:56;;;;;;;0.15;0.15;;;;;;;5.43;59.48;98321.09;5356496;26;20115;-95
2023/12/01 04:21:21;;;;;;;1.35;1.12;;;;;;;5.52;59.48;98308.72;5356246;26;20059;-95
2023/12/01 04:23:47;;;;;;;0.77;0.77;;;;;;;5.55;59.49;98287.13;5356541;26;20090;-95
2023/12/01 04:26:12;;;;;;;0.00;0.00;;;;;;;5.42;59.48;98296.19;5356640;26;20102;-96
2023/12/01 04:28:38;;;;;;;1.40;1.30;;;;;;;5.39;59.48;98298.88;5356963;26;20063;-96
2023/12/01 04:31:21;;;;;;;2.03;0.98;;;;;;;5.29;59.47;98302.66;5356281;26;20048;-95
2023/12/01 04:33:47;;;;;;;0.00;0.00;;;;;;;5.28;59.47;98309.56;5357885;26;20061;-93
2023/12/01 04:36:12;;;;;;;3.10;1.75;;;;;;;5.38;59.47;98313.50;5356330;26;20107;-94
2023/12/01 04:38:38;;;;;;;0.85;0.75;;;;;;;5.32;59.48;98310.31;5394124;26;20077;-94
2023/12/01 04:41:09;;;;;;;0.30;0.30;;;;;;;5.28;59.47;98313.88;5356646;26;20076;-95
2023/12/01 04:43:39;;;;;;;0.80;0.80;;;;;;;5.47;59.48;98308.06;5358287;26;20433;-96
2023/12/01 04:46:05;;;;;;;3.20;3.00;;;;;;;5.30;59.46;98314.69;5358509;26;20071;-96
2023/12/01 04:48:30;;;;;;;0.80;0.80;;;;;;;5.40;59.48;98308.28;5357743;26;20078;-96
2023/12/01 04:50:56;;;;;;;1.12;0.65;;;;;;;5.40;59.48;98316.87;5359722;26;20091;-96
2023/12/01 04:53:22;;;;;;;0.70;0.70;;;;;;;5.38;59.47;98308.34;5375936;26;20090;-96
2023/12/01 04:55:47;;;;;;;1.77;1.15;;;;;;;5.40;59.47;98314.28;5356695;26;20060;-96
2023/12/01 04:58:12;;;;;;;0.40;0.40;;;;;;;5.18;59.47;98313.34;5356603;26;20438;-95
2023/12/01 05:00:38;;;;;;;2.58;1.60;;;;;;;5.30;59.47;98301.78;5374452;26;20878;-94
2023/12/01 05:03:04;;;;;;;1.55;1.30;;;;;;;5.41;59.48;98307.41;5355898;26;20099;-94
2023/12/01 05:05:31;;;;;;;0.45;0.45;;;;;;;5.39;59.48;98297.12;5356680;26;20073;-96
2023/12/01 05:07:58;;;;;;;0.30;0.30;;;;;;;5.35;59.48;98299.88;5360083;26;20039;-94
2023/12/01 05:10:26;;;;;;;1.08;0.50;;;;;;;5.25;59.47;98296.78;5376066;26;20090;-96
2023/12/01 05:12:54;;;;;;;1.27;1.23;;;;;;;5.41;59.48;98297.91;5357508;26;20114;-96
2023/12/01 05:21:22;;;;;;;0.75;0.75;;;;;;;5.14;59.46;98304.00;5342035;26;20052;-96
2023/12/01 05:23:48;;;;;;;1.10;0.90;;;;;;;5.10;59.46;98295.53;5356560;26;20103;-95
2023/12/01 05:26:13;;;;;;;0.57;0.57;;;;;;;4.98;59.45;98321.75;5356416;26;20093;-96
2023/12/01 05:28:38;;;;;;;0.52;0.52;;;;;;;4.87;59.45;98316.91;5374419;26;20089;-95
2023/12/01 05:31:05;;;;;;;0.22;0.22;;;;;;;4.92;59.45;98322.75;5355740;26;20146;-94
2023/12/01 05:33:37;;;;;;;3.22;2.95;;;;;;;5.05;59.46;98320.66;5356452;26;20106;-95
2023/12/01 05:36:03;;;;;;;0.68;0.68;;;;;;;5.06;59.46;98313.75;5375479;26;20789;-95
2023/12/01 05:38:29;;;;;;;0.20;0.20;;;;;;;5.11;59.46;98319.59;5356742;26;20408;-95
2023/12/01 05:40:55;;;;;;;1.00;1.00;;;;;;;5.24;59.47;98316.56;5356290;26;20427;-94
2023/12/01 05:43:21;;;;;;;1.23;1.20;;;;;;;4.82;59.45;98320.53;5356075;26;20069;-95
2023/12/01 05:45:46;;;;;;;0.73;0.73;;;;;;;4.98;59.45;98326.06;5355995;26;26923;-96
2023/12/01 05:48:11;;;;;;;0.05;0.05;;;;;;;5.14;59.46;98314.34;5356838;26;20063;-95
2023/12/01 05:50:37;;;;;;;12.23;0.82;;;;;;;5.16;59.46;98320.28;5355933;26;20100;-95
2023/12/01 05:53:06;;;;;;;0.77;0.73;;;;;;;5.08;59.45;98310.22;5356092;26;20056;-95
2023/12/01 05:55:34;;;;;;;0.57;0.57;;;;;;;5.16;59.47;98321.12;5356383;26;20081;-92
2023/12/01 05:58:10;;;;;;;0.80;0.80;;;;;;;5.11;59.46;98325.59;5356613;26;20027;-93
2023/12/01 06:00:36;;;;;;;1.33;1.27;;;;;;;4.99;59.45;98332.91;5358348;26;21109;-93
2023/12/01 06:03:06;;;;;;;0.77;0.77;;;;;;;4.97;59.45;98334.66;5356054;26;20056;-94
2023/12/01 06:05:31;;;;;;;0.10;0.10;;;;;;;5.07;59.45;98331.75;5356023;26;20090;-93
2023/12/01 06:07:58;;;;;;;1.48;1.37;;;;;;;4.99;59.45;98335.47;5374174;26;20115;-93
2023/12/01 06:10:24;;;;;;;0.10;0.10;;;;;;;5.00;59.45;98332.84;5355465;26;20066;-94
2023/12/01 06:12:49;;;;;;;2.50;2.25;;;;;;;5.13;59.46;98328.97;5355014;26;20043;-94
2023/12/01 06:15:16;;;;;;;0.35;0.32;;;;;;;5.21;59.46;98336.47;5355447;26;20078;-94
2023/12/01 06:17:43;;;;;;;2.10;1.95;;;;;;;5.12;59.46;98329.84;5355897;26;20062;-94
2023/12/01 06:20:16;;;;;;;1.73;1.33;;;;;;;4.94;59.46;98339.03;5355873;26;20447;-94
2023/12/01 06:22:50;;;;;;;1.85;1.45;;;;;;;5.05;59.46;98332.69;5357230;26;20671;-94
2023/12/01 06:25:16;;;;;;;1.55;1.35;;;;;;;5.03;59.46;98342.22;5356757;26;20070;-94
2023/12/01 06:27:42;;;;;;;4.60;2.37;;;;;;;5.08;59.46;98342.91;5355786;26;20062;-92
2023/12/01 06:30:11;;;;;;;1.98;1.17;;;;;;;5.29;59.47;98344.78;5355234;26;20085;-92
2023/12/01 06:32:46;;;;;;;0.62;0.62;;;;;;;5.15;59.46;98332.34;5356031;26;20448;-93
2023/12/01 06:35:13;;;;;;;0.98;0.98;;;;;;;5.14;59.46;98340.97;5355650;26;20067;-94
2023/12/01 06:37:39;;;;;;;1.10;1.08;;;;;;;5.22;59.46;98345.91;5355542;26;20054;-94
2023/12/01 06:40:12;;;;;;;2.90;2.45;;;;;;;5.19;59.47;98340.81;5354792;26;20099;-93
2023/12/01 06:42:42;;;;;;;0.43;0.43;;;;;;;5.21;59.46;98345.06;5376546;26;20058;-95
2023/12/01 06:45:10;;;;;;;2.65;1.15;;;;;;;5.44;59.48;98340.84;5355306;26;20419;-95
2023/12/01 06:47:37;;;;;;;1.52;1.35;;;;;;;5.09;59.46;98340.28;5374865;26;20128;-94
2023/12/01 06:50:03;;;;;;;1.10;1.10;;;;;;;5.29;59.47;98331.06;5356841;26;20043;-95
2023/12/01 06:52:28;;;;;;;3.50;1.50;;;;;;;5.54;59.49;98331.91;5375211;26;20415;-95
2023/12/01 06:54:54;;;;;;;28.25;3.15;;;;;;;5.52;59.48;98336.28;5356501;26;20101;-95
2023/12/01 06:57:19;;;;;;;0.55;0.55;;;;;;;5.23;59.46;98340.69;5356264;26;20118;-94
2023/12/01 06:59:44;;;;;;;0.37;0.37;;;;;;;5.30;59.47;98350.78;5355877;26;20129;-94
2023/12/01 07:02:10;;;;;;;3.10;0.43;;;;;;;5.41;59.48;98346.09;5355752;26;20126;-95
2023/12/01 07:04:35;;;;;;;1.17;1.00;;;;;;;5.47;59.48;98338.19;5355800;26;20110;-94
2023/12/01 07:07:01;;;;;;;0.65;0.65;;;;;;;5.37;59.47;98347.09;5374687;26;20075;-95
2023/12/01 07:09:27;;;;;;;0.37;0.37;;;;;;;5.44;59.48;98344.28;5355492;26;20083;-96
2023/12/01 07:11:53;;;;;;;0.62;0.62;;;;;;;5.43;59.48;98362.37;5355572;26;20059;-95
2023/12/01 07:14:19;;;;;;;0.37;0.37;;;;;;;5.48;59.48;98350.19;5356009;26;20063;-95
2023/12/01 07:16:47;;;;;;;0.00;0.00;;;;;;;5.47;59.48;98377.72;5355877;26;20339;-95
2023/12/01 07:19:12;;;;;;;0.00;0.00;;;;;;;5.39;59.48;98379.69;5355642;26;20055;-95
2023/12/01 07:21:38;;;;;;;2.45;1.55;;;;;;;5.63;59.49;98352.22;5392599;26;28117;-95
2023/12/01 07:24:06;;;;;;;0.00;0.00;;;;;;;5.40;59.47;98376.22;5356082;26;20110;-95
2023/12/01 07:26:33;;;;;;;0.30;0.30;;;;;;;5.48;59.48;98376.00;5356873;26;20135;-95
2023/12/01 07:29:00;;;;;;;0.70;0.70;;;;;;;5.86;59.50;98356.59;5356534;26;20063;-94
2023/12/01 07:31:26;;;;;;;0.10;0.10;;;;;;;5.61;59.49;98366.91;5356615;26;20485;-95
2023/12/01 07:33:51;;;;;;;0.37;0.37;;;;;;;5.35;59.47;98339.41;5356042;26;20098;-96
2023/12/01 07:36:20;;;;;;;0.35;0.35;;;;;;;5.40;59.48;98342.69;5354925;26;20078;-91
2023/12/01 07:38:50;;;;;;;0.35;0.35;;;;;;;5.56;59.48;98350.75;5374787;26;20047;-91
2023/12/01 07:41:18;;;;;;;0.75;0.75;;;;;;;5.38;59.47;98356.53;5356737;26;20997;-92
2023/12/01 07:43:43;;;;;;;1.80;1.65;;;;;;;5.35;59.47;98354.91;5355410;26;20664;-92
2023/12/01 07:46:09;;;;;;;1.35;1.27;;;;;;;5.45;59.48;98358.03;5374495;26;20062;-92
2023/12/01 07:48:37;;;;;;;0.40;0.40;;;;;;;5.43;59.48;98349.47;5355651;26;20099;-92
2023/12/01 07:51:03;;;;;;;0.35;0.35;;;;;;;5.47;59.48;98348.50;5355599;26;20051;-91
2023/12/01 07:59:24;;;;;;;0.47;0.47;;;;;;;5.63;59.49;98382.34;5333910;26;20711;-93
2023/12/01 08:01:49;;;;;;;0.30;0.30;;;;;;;5.62;59.49;98365.19;5291483;26;20040;-94
2023/12/01 08:04:15;;;;;;;5.93;1.48;;;;;;;5.60;59.48;98365.25;5289684;26;20116;-94
2023/12/01 08:06:41;;;;;;;0.45;0.20;;;;;;;5.45;59.48;98368.34;5288984;26;21410;-93
2023/12/01 08:09:07;;;;;;;0.68;0.68;;;;;;;5.45;59.48;98394.16;5307898;26;20049;-94
2023/12/01 08:11:32;;;;;;;0.28;0.28;;;;;;;5.60;59.48;98383.31;5300872;26;20071;-93
2023/12/01 08:13:57;;;;;;;0.20;0.20;;;;;;;5.73;59.49;98400.09;5311763;26;20133;-95
2023/12/01 08:16:24;;;;;;;0.10;0.10;;;;;;;5.67;59.49;98363.28;5313686;26;20107;-94
2023/12/01 08:23:53;;;;;;;1.17;1.08;;;;;;;5.56;59.49;98376.56;5298120;27;20519;-95
2023/12/01 08:26:38;;;;;;;0.20;0.20;;;;;;;5.66;59.49;98370.19;5307320;26;20680;-95
2023/12/01 08:33:09;;;;;;;0.98;0.98;;;;;;;5.89;59.50;98377.13;5205660;27;20027;-95
2023/12/01 08:36:23;;;;;;;0.55;0.55;;;;;;;5.65;59.49;98373.66;5213573;27;20655;-94
2023/12/01 08:38:48;;;;;;;0.00;0.00;;;;;;;6.00;59.51;98375.06;5204295;27;20121;-94
2023/12/01 08:41:14;;;;;;;0.25;0.25;;;;;;;5.99;59.51;98385.47;5194759;27;20133;-95
2023/12/01 08:43:39;;;;;;;0.43;0.43;;;;;;;5.91;59.51;98392.59;5225507;27;20118;-95
2023/12/01 08:46:05;;;;;;;0.50;0.40;;;;;;;5.89;59.50;98379.72;5245513;27;20112;-95
2023/12/01 08:48:30;;;;;;;1.65;0.65;;;;;;;5.94;59.51;98377.87;5245000;27;20115;-96
2023/12/01 08:50:56;;;;;;;0.47;0.47;;;;;;;6.10;59.52;98376.41;5245861;27;20430;-93
2023/12/01 08:53:22;;;;;;;0.65;0.65;;;;;;;6.16;59.52;98375.38;5244808;27;20096;-93
2023/12/01 08:55:48;;;;;;;8.38;5.15;;;;;;;6.22;59.53;98369.13;5245221;27;20057;-96
2023/12/01 08:58:13;;;;;;;2.10;1.95;;;;;;;6.33;59.52;98372.16;5263301;27;20065;-94
2023/12/01 09:04:05;;;;;;;2.05;1.87;;;;;;;6.53;59.54;98390.34;5345113;26;20016;-95
2023/12/01 09:06:30;;;;;;;1.15;1.02;;;;;;;6.60;59.55;98376.28;5344552;26;20044;-94
2023/12/01 09:42:52;;;;;;;0.80;0.65;;;;;;;6.03;59.51;98364.63;5133652;27;20055;-93
2023/12/01 09:45:23;;;;;;;1.08;0.82;;;;;;;6.15;59.52;98379.69;5135974;28;20024;-93
2023/12/01 09:47:51;;;;;;;;;;;;;;;6.13;59.51;98375.44;5121961;27;20064;-95
2023/12/01 09:50:17;;;;;;;0.32;0.32;;;;;;;6.25;59.52;98358.69;5209722;27;19993;-96
2023/12/01 09:52:43;;;;;;;0.62;0.62;;;;;;;6.25;59.52;98341.44;5319905;26;20088;-96
2023/12/01 09:55:11;;;;;;;0.00;0.00;;;;;;;6.18;59.52;98323.66;5398271;26;20114;-96
2023/12/01 09:57:42;;;;;;;0.00;0.00;;;;;;;6.21;59.53;98323.53;5379122;26;20070;-95
2023/12/01 10:00:21;;;;;;;0.57;0.57;;;;;;;5.95;59.51;98332.22;5379819;26;20063;-96
2023/12/01 10:02:51;;;;;;;0.37;0.37;;;;;;;5.99;59.51;98344.12;5382323;26;20066;-96
2023/12/01 10:05:25;;;;;;;0.10;0.10;;;;;;;5.93;59.51;98337.44;5379844;26;20050;-95
2023/12/01 10:07:50;;;;;;;0.80;0.43;;;;;;;5.83;59.50;98343.78;5376109;26;20122;-95
2023/12/01 10:10:36;;;;;;;0.52;0.50;;;;;;;5.85;59.50;98354.91;5380327;26;20063;-96
2023/12/01 10:13:10;;;;;;;0.10;0.10;;;;;;;5.69;59.50;98339.13;5384512;26;20741;-96
2023/12/01 10:15:43;;;;;;;0.10;0.10;;;;;;;5.64;59.49;98335.00;5383302;26;20059;-94
2023/12/01 10:18:20;;;;;;;0.00;0.00;;;;;;;5.68;59.49;98328.81;5386564;26;20054;-96
2023/12/01 10:21:07;;;;;;;0.00;0.00;;;;;;;5.77;59.50;98328.53;5400547;26;20059;-96
2023/12/01 10:23:37;;;;;;;0.00;0.00;;;;;;;5.80;59.50;98324.09;5383046;26;20463;-96
2023/12/01 10:26:07;;;;;;;0.22;0.22;;;;;;;5.71;59.50;98319.25;5382158;26;20163;-96
2023/12/01 10:28:43;;;;;;;0.00;0.00;;;;;;;5.72;59.50;98322.69;5382840;26;20066;-96
2023/12/01 10:31:16;;;;;;;2.53;0.90;;;;;;;5.80;59.50;98311.19;5386104;26;20074;-96
2023/12/01 10:33:42;;;;;;;0.35;0.35;;;;;;;5.69;59.50;98313.31;5386547;26;20074;-96
2023/12/01 10:36:08;;;;;;;0.10;0.10;;;;;;;5.57;59.49;98316.31;5362342;26;20055;-96
2023/12/01 10:38:35;;;;;;;0.00;0.00;;;;;;;5.60;59.48;98320.53;5338318;26;20027;-96
2023/12/01 10:41:05;;;;;;;0.00;0.00;;;;;;;5.68;59.50;98314.22;5355381;26;20038;-96
2023/12/01 10:43:30;;;;;;;;;;;;;;;5.64;59.49;98312.59;5337029;26;20086;-96
2023/12/01 10:46:04;;;;;;;0.37;0.37;;;;;;;5.63;59.49;98313.50;5372575;26;19963;-95
2023/12/01 10:48:30;;;;;;;7.25;1.23;;;;;;;5.60;59.48;98300.72;5335481;26;20064;-96
2023/12/01 10:50:56;;;;;;;0.10;0.10;;;;;;;5.63;59.49;98305.75;5336573;26;20028;-95
2023/12/01 10:53:26;;;;;;;0.00;0.00;;;;;;;5.67;59.49;98302.16;5335662;26;20070;-96
2023/12/01 10:55:53;;;;;;;;;;;;;;;5.74;59.49;98305.41;5338881;26;20078;-96
2023/12/01 10:58:23;;;;;;;0.32;0.30;;;;;;;5.64;59.49;98306.59;5372664;26;19978;-95
2023/12/01 11:00:49;;;;;;;;;;;;;;;5.63;59.49;98304.91;5368571;26;20064;-96
2023/12/01 11:03:14;;;;;;;0.15;0.15;;;;;;;5.63;59.49;98297.19;5377846;26;20255;-96
2023/12/01 11:05:44;;;;;;;0.20;0.20;;;;;;;5.54;59.49;98291.44;5361556;26;20139;-96
2023/12/01 11:08:20;;;;;;;0.00;0.00;;;;;;;5.64;59.49;98288.53;5378875;26;20108;-96
2023/12/01 11:10:55;;;;;;;0.05;0.05;;;;;;;5.52;59.48;98271.75;5361387;26;20632;-96
2023/12/01 11:13:39;;;;;;;0.28;0.28;;;;;;;5.46;59.48;98271.97;5396994;26;20100;-96
2023/12/01 11:16:07;;;;;;;0.10;0.10;;;;;;;5.48;59.48;98283.09;5394295;26;20107;-96
2023/12/01 11:18:32;;;;;;;1.40;1.15;;;;;;;5.62;59.49;98282.59;5357836;26;20063;-95
2023/12/01 11:20:58;;;;;;;0.10;0.10;;;;;;;5.46;59.48;98271.97;5358261;26;20074;-96
2023/12/01 11:23:25;;;;;;;0.22;0.22;;;;;;;5.54;59.49;98273.38;5384985;26;20051;-96
2023/12/01 11:25:55;;;;;;;1.35;0.70;;;;;;;5.54;59.49;98280.28;5376637;26;20113;-94
2023/12/01 11:31:16;;;;;;;4.75;2.65;;;;;;;5.77;59.50;98277.72;5378823;26;20047;-95
2023/12/01 12:14:01;;;;;;;0.03;0.03;;;;;;;6.00;59.51;98269.16;4887349;29;20078;-95
2023/12/01 12:25:10;;;;;;;0.00;0.00;;;;;;;6.04;59.51;98247.50;5094013;27;20242;-91
2023/12/01 12:27:44;;;;;;;0.03;0.03;;;;;;;6.17;59.52;98242.72;5258978;26;20405;-92
2023/12/01 12:30:09;;;;;;;0.32;0.32;;;;;;;6.17;59.51;98237.53;5291311;26;20074;-92
2023/12/01 12:32:36;;;;;;;0.03;0.03;;;;;;;6.08;59.52;98237.88;5289160;26;20060;-92
2023/12/01 12:35:13;;;;;;;0.00;0.00;;;;;;;6.31;59.52;98243.00;5289089;26;20070;-92
2023/12/01 12:37:39;;;;;;;1.00;1.00;;;;;;;6.25;59.52;98239.81;5288682;26;20045;-91
2023/12/01 12:40:08;;;;;;;0.10;0.10;;;;;;;6.29;59.53;98241.37;5287846;26;20099;-91
2023/12/01 12:42:33;;;;;;;0.05;0.05;;;;;;;6.19;59.52;98246.06;5287962;26;20139;-89
2023/12/01 12:45:01;;;;;;;0.10;0.10;;;;;;;6.30;59.53;98243.06;5305720;26;20407;-91
2023/12/01 12:47:28;;;;;;;0.10;0.10;;;;;;;6.44;59.54;98244.22;5305998;26;20052;-90
2023/12/01 12:49:54;;;;;;;0.57;0.57;;;;;;;6.48;59.54;98237.19;5287661;26;20061;-90
2023/12/01 12:52:19;;;;;;;0.00;0.00;;;;;;;6.53;59.54;98248.19;5324423;26;20090;-94
2023/12/01 12:54:52;;;;;;;0.00;0.00;;;;;;;6.57;59.54;98246.31;5288709;26;20100;-95
2023/12/01 12:57:17;;;;;;;0.00;0.00;;;;;;;6.44;59.53;98246.81;5290121;26;20028;-92
2023/12/01 12:59:43;;;;;;;0.90;0.90;;;;;;;6.32;59.52;98239.50;5288355;26;20086;-96
2023/12/01 13:02:12;;;;;;;0.00;0.00;;;;;;;6.41;59.53;98230.59;5288940;26;20086;-93
2023/12/01 13:04:58;;;;;;;0.35;0.28;;;;;;;6.28;59.52;98234.53;5290182;26;20488;-96
2023/12/01 13:07:48;;;;;;;2.70;0.80;;;;;;;6.29;59.53;98225.87;5325474;26;20463;-95
2023/12/01 13:12:51;;;;;;;1.83;0.85;;;;;;;6.18;59.52;98230.63;5316528;26;20132;-91
2023/12/01 13:35:25;;;;;;;2.35;0.75;;;;;;;6.10;59.52;98247.25;5179433;27;20487;-95
2023/12/01 13:37:50;;;;;;;0.00;0.00;;;;;;;6.13;59.51;98246.28;5261956;27;20503;-91
2023/12/01 13:40:16;;;;;;;0.20;0.20;;;;;;;6.01;59.51;98250.19;5239219;27;20074;-93
2023/12/01 13:42:50;;;;;;;0.00;0.00;;;;;;;6.05;59.51;98246.59;5309689;26;20055;-96
2023/12/01 13:45:22;;;;;;;0.03;0.03;;;;;;;5.97;59.51;98237.47;5310477;26;20060;-93
2023/12/01 13:47:48;;;;;;;0.32;0.30;;;;;;;5.96;59.51;98235.78;5349802;26;20063;-96
2023/12/01 13:50:23;;;;;;;1.25;0.90;;;;;;;6.18;59.52;98228.06;5333996;26;20073;-95
2023/12/01 13:52:50;;;;;;;0.00;0.00;;;;;;;6.14;59.52;98245.38;5351769;26;20796;-96
2023/12/01 13:55:15;;;;;;;0.00;0.00;;;;;;;6.24;59.52;98251.06;5346018;26;20441;-95